createdAt,value
2017-07-02T00:01:50.598Z,90.50
2017-07-02T00:04:18.119Z,91.00
2017-07-02T00:06:45.630Z,90.90
2017-07-02T00:09:13.139Z,91.00
2017-07-02T00:11:40.639Z,91.40
2017-07-02T00:14:08.151Z,91.70
2017-07-02T00:16:35.641Z,91.60
2017-07-02T00:19:03.161Z,91.70
2017-07-02T00:21:30.672Z,91.30
2017-07-02T00:23:58.187Z,90.80
2017-07-02T00:26:25.665Z,90.70
2017-07-02T00:28:53.179Z,90.70
2017-07-02T00:31:20.677Z,91.00
2017-07-02T00:33:48.197Z,90.90
2017-07-02T00:36:16.458Z,91.10
2017-07-02T00:38:44.746Z,91.20
2017-07-02T00:41:12.256Z,91.20
2017-07-02T00:43:39.791Z,91.20
2017-07-02T00:46:07.281Z,91.30
2017-07-02T00:48:34.780Z,91.30
2017-07-02T00:51:02.292Z,91.60
2017-07-02T00:53:29.764Z,91.70
2017-07-02T00:55:57.279Z,91.90
2017-07-02T00:58:24.768Z,91.90
2017-07-02T01:00:52.270Z,92.00
2017-07-02T01:03:19.764Z,92.00
2017-07-02T01:05:47.271Z,92.10
2017-07-02T01:08:14.765Z,92.10
2017-07-02T01:10:42.274Z,91.90
2017-07-02T01:13:09.777Z,91.90
2017-07-02T01:15:37.287Z,91.80
2017-07-02T01:18:04.780Z,91.60
2017-07-02T01:20:32.289Z,91.30
2017-07-02T01:22:59.769Z,91.30
2017-07-02T01:25:27.291Z,91.00
2017-07-02T01:27:54.780Z,91.30
2017-07-02T01:30:23.060Z,91.10
2017-07-02T01:32:50.545Z,91.00
2017-07-02T01:35:18.073Z,91.10
2017-07-02T01:37:45.568Z,91.00
2017-07-02T01:40:13.068Z,90.90
2017-07-02T01:42:40.589Z,90.90
2017-07-02T01:45:08.085Z,91.00
2017-07-02T01:47:35.609Z,91.20
2017-07-02T01:50:03.098Z,91.00
2017-07-02T01:52:30.604Z,90.80
2017-07-02T01:54:58.095Z,91.00
2017-07-02T01:57:25.619Z,91.30
2017-07-02T01:59:53.118Z,91.30
2017-07-02T02:02:32.323Z,91.30
2017-07-02T02:04:59.819Z,91.40
2017-07-02T02:07:27.332Z,91.30
2017-07-02T02:09:54.822Z,91.30
2017-07-02T02:12:22.349Z,91.20
2017-07-02T02:14:49.862Z,91.30
2017-07-02T02:17:17.373Z,91.30
2017-07-02T02:19:44.870Z,91.40
2017-07-02T02:22:12.392Z,91.40
2017-07-02T02:24:39.952Z,91.40
2017-07-02T02:27:07.494Z,91.60
2017-07-02T02:29:35.764Z,91.80
2017-07-02T02:32:03.288Z,91.70
2017-07-02T02:34:31.555Z,91.70
2017-07-02T02:36:59.051Z,91.70
2017-07-02T02:39:26.565Z,91.80
2017-07-02T02:41:54.056Z,91.70
2017-07-02T02:44:21.564Z,91.70
2017-07-02T02:46:49.064Z,92.00
2017-07-02T02:49:17.356Z,92.40
2017-07-02T02:51:44.855Z,92.40
2017-07-02T02:54:12.360Z,92.50
2017-07-02T02:56:39.869Z,92.60
2017-07-02T02:59:07.390Z,92.50
2017-07-02T03:01:34.887Z,92.30
2017-07-02T03:04:02.413Z,91.80
2017-07-02T03:06:29.907Z,91.70
2017-07-02T03:08:57.415Z,92.00
2017-07-02T03:11:24.942Z,92.00
2017-07-02T03:13:52.452Z,91.70
2017-07-02T03:16:20.715Z,91.30
2017-07-02T03:18:48.243Z,91.30
2017-07-02T03:21:15.776Z,91.30
2017-07-02T03:23:43.297Z,91.20
2017-07-02T03:26:10.799Z,91.30
2017-07-02T03:28:38.348Z,91.20
2017-07-02T03:31:05.856Z,91.30
2017-07-02T03:33:33.357Z,91.00
2017-07-02T03:36:00.875Z,91.20
2017-07-02T03:38:28.392Z,91.20
2017-07-02T03:40:56.697Z,91.20
2017-07-02T03:43:24.205Z,91.10
2017-07-02T03:45:51.728Z,91.10
2017-07-02T03:48:19.234Z,91.10
2017-07-02T03:50:46.754Z,91.20
2017-07-02T03:53:14.261Z,90.80
2017-07-02T03:55:41.792Z,90.90
2017-07-02T03:58:09.311Z,91.00
2017-07-02T04:00:36.860Z,91.00
2017-07-02T04:03:04.352Z,90.90
2017-07-02T04:05:31.872Z,91.00
2017-07-02T04:07:59.372Z,91.20
2017-07-02T04:10:26.892Z,91.00
2017-07-02T04:12:54.384Z,91.00
2017-07-02T04:15:21.905Z,91.10
2017-07-02T04:17:49.420Z,91.00
2017-07-02T04:20:16.944Z,90.60
2017-07-02T04:22:44.449Z,90.40
2017-07-02T04:25:11.969Z,90.20
2017-07-02T04:27:39.483Z,90.40
2017-07-02T04:30:07.009Z,90.50
2017-07-02T04:32:34.520Z,90.30
2017-07-02T04:35:02.025Z,90.10
2017-07-02T04:37:29.572Z,90.10
2017-07-02T04:39:57.107Z,90.40
2017-07-02T04:42:24.691Z,90.70
2017-07-02T04:44:52.308Z,90.50
2017-07-02T04:47:19.863Z,90.30
2017-07-02T04:49:47.389Z,90.20
2017-07-02T04:52:14.961Z,90.20
2017-07-02T04:54:43.595Z,90.20
2017-07-02T04:57:11.141Z,89.90
2017-07-02T04:59:38.661Z,90.00
2017-07-02T05:02:06.247Z,90.10
2017-07-02T05:04:33.788Z,90.20
2017-07-02T05:07:01.309Z,90.10
2017-07-02T05:09:28.836Z,90.10
2017-07-02T05:11:57.141Z,89.20
2017-07-02T05:14:24.675Z,89.20
2017-07-02T05:16:52.212Z,90.00
2017-07-02T05:19:19.742Z,90.00
2017-07-02T05:21:47.277Z,89.10
2017-07-02T05:24:14.815Z,88.00
2017-07-02T05:26:43.135Z,87.20
2017-07-02T05:29:10.653Z,87.10
2017-07-02T05:31:38.149Z,87.50
2017-07-02T05:34:05.662Z,87.10
2017-07-02T05:36:33.148Z,87.40
2017-07-02T05:39:01.438Z,85.80
2017-07-02T05:41:28.955Z,85.80
2017-07-02T05:43:56.492Z,85.80
2017-07-02T05:46:24.756Z,85.10
2017-07-02T05:48:52.268Z,85.00
2017-07-02T05:51:19.756Z,85.10
2017-07-02T05:53:47.267Z,84.90
2017-07-02T05:56:14.776Z,83.90
2017-07-02T05:58:42.280Z,83.30
2017-07-02T06:01:09.773Z,82.80
2017-07-02T06:03:37.284Z,82.90
2017-07-02T06:06:04.825Z,82.90
2017-07-02T06:08:32.348Z,83.30
2017-07-02T06:10:59.839Z,83.40
2017-07-02T06:13:28.192Z,82.70
2017-07-02T06:15:55.687Z,82.80
2017-07-02T06:18:23.177Z,82.20
2017-07-02T06:20:50.692Z,81.50
2017-07-02T06:23:18.183Z,80.90
2017-07-02T06:25:45.720Z,80.80
2017-07-02T06:28:13.222Z,80.40
2017-07-02T06:30:40.737Z,80.20
2017-07-02T06:33:08.254Z,79.10
2017-07-02T06:35:35.765Z,79.10
2017-07-02T06:38:03.259Z,79.50
2017-07-02T06:40:30.768Z,79.20
2017-07-02T06:42:58.268Z,79.60
2017-07-02T06:45:25.784Z,79.50
2017-07-02T06:47:53.300Z,80.10
2017-07-02T06:50:20.816Z,80.20
2017-07-02T06:52:48.328Z,80.60
2017-07-02T06:55:15.853Z,79.20
2017-07-02T06:57:43.347Z,78.70
2017-07-02T07:00:10.848Z,78.60
2017-07-02T07:02:38.340Z,79.30
2017-07-02T07:05:05.857Z,78.90
2017-07-02T07:07:33.401Z,78.00
2017-07-02T07:10:00.891Z,78.50
2017-07-02T07:12:28.393Z,79.30
2017-07-02T07:14:55.880Z,79.10
2017-07-02T07:17:23.392Z,78.70
2017-07-02T07:19:50.887Z,79.20
2017-07-02T07:22:19.174Z,80.00
2017-07-02T07:24:46.688Z,79.90
2017-07-02T07:27:14.967Z,79.60
2017-07-02T07:29:42.473Z,79.40
2017-07-02T07:32:09.987Z,79.40
2017-07-02T07:34:37.504Z,78.90
2017-07-02T07:37:05.024Z,78.40
2017-07-02T07:39:32.512Z,77.20
2017-07-02T07:42:00.038Z,74.90
2017-07-02T07:44:28.937Z,74.40
2017-07-02T07:46:56.746Z,74.20
2017-07-02T07:49:24.243Z,72.90
2017-07-02T07:51:52.011Z,72.30
2017-07-02T07:54:20.281Z,72.30
2017-07-02T07:56:48.017Z,72.10
2017-07-02T07:59:15.517Z,71.30
2017-07-02T08:01:43.026Z,70.20
2017-07-02T08:04:11.300Z,68.70
2017-07-02T08:06:38.796Z,68.60
2017-07-02T08:09:06.303Z,69.20
2017-07-02T08:11:33.787Z,70.30
2017-07-02T08:14:01.323Z,70.70
2017-07-02T08:16:28.812Z,70.30
2017-07-02T08:18:56.788Z,71.10
2017-07-02T08:21:24.621Z,70.70
2017-07-02T08:23:52.148Z,69.50
2017-07-02T08:26:20.421Z,70.90
2017-07-02T08:28:48.056Z,70.80
2017-07-02T08:31:15.597Z,70.50
2017-07-02T08:33:43.119Z,70.90
2017-07-02T08:36:10.609Z,72.30
2017-07-02T08:38:38.123Z,72.50
2017-07-02T08:41:06.371Z,71.60
2017-07-02T08:43:33.878Z,71.50
2017-07-02T08:46:01.364Z,71.80
2017-07-02T08:48:28.903Z,72.10
2017-07-02T08:50:57.394Z,71.50
2017-07-02T08:53:24.908Z,71.50
2017-07-02T08:55:52.397Z,72.50
2017-07-02T08:58:19.901Z,73.20
2017-07-02T09:00:47.425Z,72.10
2017-07-02T09:03:14.938Z,71.40
2017-07-02T09:05:42.462Z,70.10
2017-07-02T09:08:10.019Z,69.70
2017-07-02T09:10:37.524Z,70.10
2017-07-02T09:13:05.828Z,68.20
2017-07-02T09:15:33.342Z,68.10
2017-07-02T09:18:00.844Z,68.60
2017-07-02T09:20:28.347Z,65.70
2017-07-02T09:22:55.860Z,65.80
2017-07-02T09:25:24.364Z,66.20
2017-07-02T09:27:52.169Z,66.10
2017-07-02T09:30:19.713Z,66.60
2017-07-02T09:32:47.320Z,64.50
2017-07-02T09:35:14.984Z,63.70
2017-07-02T09:37:42.472Z,62.10
2017-07-02T09:40:10.048Z,61.70
2017-07-02T09:42:37.539Z,61.30
2017-07-02T09:45:06.302Z,58.60
2017-07-02T09:47:33.901Z,58.60
2017-07-02T09:50:01.470Z,58.50
2017-07-02T09:52:30.129Z,56.80
2017-07-02T09:54:57.617Z,56.80
2017-07-02T09:57:25.327Z,57.90
2017-07-02T09:59:52.837Z,57.00
2017-07-02T10:02:20.392Z,55.90
2017-07-02T10:04:47.903Z,54.60
2017-07-02T10:07:15.416Z,54.30
2017-07-02T10:09:43.670Z,54.10
2017-07-02T10:12:11.181Z,54.00
2017-07-02T10:14:38.664Z,52.60
2017-07-02T10:17:06.964Z,52.20
2017-07-02T10:19:34.456Z,52.20
2017-07-02T10:22:02.053Z,53.20
2017-07-02T10:24:29.552Z,53.20
2017-07-02T10:26:57.824Z,54.50
2017-07-02T10:29:26.262Z,55.10
2017-07-02T10:31:54.613Z,56.30
2017-07-02T10:34:22.159Z,56.30
2017-07-02T10:36:49.836Z,56.00
2017-07-02T10:39:17.405Z,56.60
2017-07-02T10:41:45.094Z,57.50
2017-07-02T10:44:12.759Z,58.10
2017-07-02T10:46:40.255Z,57.40
2017-07-02T10:49:07.817Z,57.90
2017-07-02T10:51:35.392Z,58.00
2017-07-02T10:54:02.888Z,57.70
2017-07-02T10:56:30.379Z,59.00
2017-07-02T10:58:58.654Z,58.90
2017-07-02T11:01:26.903Z,58.30
2017-07-02T11:03:55.185Z,57.90
2017-07-02T11:06:25.554Z,57.80
2017-07-02T11:08:53.056Z,57.90
2017-07-02T11:11:20.539Z,57.80
2017-07-02T11:13:48.040Z,57.80
2017-07-02T11:16:15.521Z,57.00
2017-07-02T11:18:43.052Z,57.80
2017-07-02T11:21:10.537Z,57.50
2017-07-02T11:23:38.808Z,56.50
2017-07-02T11:26:06.296Z,56.50
2017-07-02T11:28:33.803Z,58.00
2017-07-02T11:31:01.291Z,58.00
2017-07-02T11:33:28.795Z,58.50
2017-07-02T11:35:56.284Z,59.50
2017-07-02T11:38:23.833Z,59.50
2017-07-02T11:40:51.299Z,59.60
2017-07-02T11:43:18.788Z,59.70
2017-07-02T11:45:46.302Z,59.30
2017-07-02T11:48:13.799Z,60.70
2017-07-02T11:50:41.302Z,60.90
2017-07-02T11:53:08.788Z,60.40
2017-07-02T11:55:36.292Z,60.50
2017-07-02T11:58:03.776Z,61.00
2017-07-02T12:00:32.056Z,60.40
2017-07-02T12:02:59.568Z,60.20
2017-07-02T12:05:27.069Z,60.80
2017-07-02T12:07:54.551Z,60.20
2017-07-02T12:10:22.055Z,60.30
2017-07-02T12:12:49.563Z,60.40
2017-07-02T12:15:17.077Z,60.20
2017-07-02T12:17:44.566Z,60.40
2017-07-02T12:20:12.958Z,59.70
2017-07-02T12:22:40.449Z,58.50
2017-07-02T12:25:08.720Z,56.10
2017-07-02T12:27:36.962Z,54.60
2017-07-02T12:30:04.488Z,55.20
2017-07-02T12:32:32.062Z,52.70
2017-07-02T12:34:59.867Z,51.00
2017-07-02T12:37:27.505Z,51.50
2017-07-02T12:39:55.213Z,50.30
2017-07-02T12:42:22.976Z,50.20
2017-07-02T12:44:50.494Z,50.50
2017-07-02T12:47:19.344Z,50.80
2017-07-02T12:49:46.892Z,50.80
2017-07-02T12:52:14.405Z,51.30
2017-07-02T12:54:42.029Z,51.30
2017-07-02T12:57:09.658Z,51.40
2017-07-02T12:59:37.176Z,50.80
2017-07-02T13:02:04.680Z,50.20
2017-07-02T13:04:32.166Z,51.10
2017-07-02T13:06:59.664Z,50.00
2017-07-02T13:09:27.146Z,50.30
2017-07-02T13:11:55.423Z,50.00
2017-07-02T13:14:22.915Z,49.90
2017-07-02T13:16:50.428Z,50.90
2017-07-02T13:19:17.937Z,50.40
2017-07-02T13:21:46.209Z,50.80
2017-07-02T13:24:13.727Z,50.70
2017-07-02T13:26:41.241Z,50.60
2017-07-02T13:29:08.737Z,50.80
2017-07-02T13:31:37.124Z,50.80
2017-07-02T13:34:04.614Z,51.60
2017-07-02T13:36:32.094Z,51.50
2017-07-02T13:38:59.656Z,52.10
2017-07-02T13:41:27.140Z,52.50
2017-07-02T13:43:54.644Z,52.70
2017-07-02T13:46:22.132Z,52.00
2017-07-02T13:48:49.651Z,52.40
2017-07-02T13:51:17.288Z,52.30
2017-07-02T13:53:44.921Z,52.90
2017-07-02T13:56:14.021Z,53.20
2017-07-02T13:58:42.741Z,53.10
2017-07-02T14:01:10.252Z,53.30
2017-07-02T14:03:37.994Z,54.10
2017-07-02T14:06:05.655Z,54.80
2017-07-02T14:08:33.165Z,55.20
2017-07-02T14:11:00.704Z,55.30
2017-07-02T14:13:28.212Z,55.40
2017-07-02T14:15:55.702Z,55.50
2017-07-02T14:18:23.233Z,54.90
2017-07-02T14:20:50.729Z,54.80
2017-07-02T14:23:19.016Z,55.60
2017-07-02T14:25:46.512Z,56.10
2017-07-02T14:28:14.074Z,55.70
2017-07-02T14:30:41.595Z,54.70
2017-07-02T14:33:09.084Z,54.50
2017-07-02T14:35:36.695Z,54.40
2017-07-02T14:38:04.948Z,56.10
2017-07-02T14:40:32.472Z,55.30
2017-07-02T14:42:59.960Z,55.20
2017-07-02T14:45:27.706Z,55.60
2017-07-02T14:47:55.307Z,54.80
2017-07-02T14:50:22.966Z,54.80
2017-07-02T14:52:50.467Z,54.40
2017-07-02T14:55:17.990Z,55.00
2017-07-02T14:57:45.496Z,55.50
2017-07-02T15:00:13.027Z,55.30
2017-07-02T15:02:40.527Z,55.50
2017-07-02T15:05:08.081Z,55.90
2017-07-02T15:07:35.593Z,56.90
2017-07-02T15:10:03.217Z,57.50
2017-07-02T15:12:30.734Z,57.70
2017-07-02T15:14:58.309Z,58.60
2017-07-02T15:17:25.818Z,58.80
2017-07-02T15:19:53.333Z,59.30
2017-07-02T15:22:20.952Z,59.70
2017-07-02T15:24:48.440Z,59.90
2017-07-02T15:27:16.562Z,59.60
2017-07-02T15:29:44.061Z,60.20
2017-07-02T15:32:11.940Z,59.70
2017-07-02T15:34:39.728Z,59.20
2017-07-02T15:37:12.537Z,58.90
2017-07-02T15:39:40.885Z,60.40
2017-07-02T15:42:08.403Z,59.90
2017-07-02T15:44:35.904Z,59.50
2017-07-02T15:47:07.653Z,59.30
2017-07-02T15:49:36.080Z,59.20
2017-07-02T15:52:03.596Z,59.10
2017-07-02T15:54:31.124Z,58.90
2017-07-02T15:56:58.636Z,59.90
2017-07-02T15:59:26.885Z,59.60
2017-07-02T16:01:54.404Z,59.50
2017-07-02T16:04:21.909Z,60.10
2017-07-02T16:06:49.427Z,60.00
2017-07-02T16:09:17.699Z,61.40
2017-07-02T16:11:45.227Z,61.30
2017-07-02T16:14:13.501Z,61.70
2017-07-02T16:16:41.010Z,61.50
2017-07-02T16:19:08.508Z,62.00
2017-07-02T16:21:36.029Z,62.20
2017-07-02T16:24:03.560Z,62.30
2017-07-02T16:26:31.066Z,62.80
2017-07-02T16:28:58.582Z,62.60
2017-07-02T16:31:26.070Z,62.90
2017-07-02T16:33:53.577Z,62.80
2017-07-02T16:36:21.069Z,63.40
2017-07-02T16:38:49.350Z,63.10
2017-07-02T16:41:16.845Z,63.00
2017-07-02T16:43:44.463Z,63.30
2017-07-02T16:46:11.972Z,63.90
2017-07-02T16:48:39.504Z,64.60
2017-07-02T16:51:07.777Z,64.40
2017-07-02T16:53:36.073Z,64.70
2017-07-02T16:56:03.568Z,64.50
2017-07-02T16:58:31.080Z,64.70
2017-07-02T17:00:58.594Z,64.80
2017-07-02T17:03:26.113Z,64.40
2017-07-02T17:05:53.620Z,64.40
2017-07-02T17:08:38.636Z,64.70
2017-07-02T17:11:06.151Z,64.50
2017-07-02T17:13:40.776Z,65.00
2017-07-02T17:16:08.261Z,64.80
2017-07-02T17:18:35.796Z,65.30
2017-07-02T17:21:04.233Z,65.30
2017-07-02T17:23:31.808Z,65.50
2017-07-02T17:25:59.338Z,64.80
2017-07-02T17:28:26.833Z,64.60
2017-07-02T17:30:55.108Z,65.10
2017-07-02T17:33:23.036Z,65.10
2017-07-02T17:35:51.371Z,65.10
2017-07-02T17:38:18.876Z,65.20
2017-07-02T17:40:46.386Z,65.50
2017-07-02T17:43:13.932Z,65.70
2017-07-02T17:45:41.436Z,66.10
2017-07-02T17:48:08.928Z,66.30
2017-07-02T17:50:36.436Z,66.30
2017-07-02T17:53:03.924Z,66.20
2017-07-02T17:55:31.444Z,65.90
2017-07-02T17:57:58.944Z,65.50
2017-07-02T18:00:26.453Z,65.80
2017-07-02T18:02:53.939Z,65.60
2017-07-02T18:05:21.444Z,65.30
2017-07-02T18:07:48.930Z,65.50
2017-07-02T18:10:16.445Z,65.60
2017-07-02T18:12:43.932Z,65.50
2017-07-02T18:15:12.204Z,65.70
2017-07-02T18:17:40.448Z,65.00
2017-07-02T18:20:07.969Z,64.90
2017-07-02T18:22:35.448Z,65.10
2017-07-02T18:25:03.700Z,65.60
2017-07-02T18:27:31.972Z,65.70
2017-07-02T18:30:00.219Z,65.60
2017-07-02T18:32:28.485Z,67.00
2017-07-02T18:34:55.969Z,66.20
2017-07-02T18:37:23.468Z,66.30
2017-07-02T18:39:51.725Z,66.50
2017-07-02T18:42:19.233Z,67.00
2017-07-02T18:44:46.722Z,66.30
2017-07-02T18:47:14.223Z,66.80
2017-07-02T18:49:41.727Z,67.30
2017-07-02T18:52:09.264Z,67.80
2017-07-02T18:54:36.758Z,68.50
2017-07-02T18:57:04.278Z,68.70
2017-07-02T18:59:31.781Z,68.70
2017-07-02T19:01:59.297Z,68.60
2017-07-02T19:04:26.796Z,68.60
2017-07-02T19:06:54.309Z,68.70
2017-07-02T19:09:21.808Z,68.30
2017-07-02T19:11:49.321Z,68.00
2017-07-02T19:14:16.808Z,67.80
2017-07-02T19:16:44.319Z,67.90
2017-07-02T19:19:11.865Z,68.20
2017-07-02T19:21:39.360Z,68.40
2017-07-02T19:24:07.628Z,68.60
2017-07-02T19:26:35.116Z,68.60
2017-07-02T19:29:02.625Z,68.60
2017-07-02T19:31:30.140Z,68.50
2017-07-02T19:33:58.413Z,68.70
2017-07-02T19:36:25.894Z,68.70
2017-07-02T19:38:53.392Z,68.50
2017-07-02T19:41:21.649Z,68.70
2017-07-02T19:43:49.923Z,69.00
2017-07-02T19:46:18.564Z,68.80
2017-07-02T19:48:46.070Z,69.00
2017-07-02T19:51:13.568Z,69.10
2017-07-02T19:53:41.089Z,69.00
2017-07-02T19:56:08.572Z,69.40
2017-07-02T19:58:36.072Z,69.40
2017-07-02T20:01:03.554Z,69.40
2017-07-02T20:03:31.059Z,69.50
2017-07-02T20:05:58.544Z,70.20
2017-07-02T20:08:26.053Z,70.30
2017-07-02T20:10:54.312Z,70.10
2017-07-02T20:13:22.562Z,69.80
2017-07-02T20:15:50.094Z,69.80
2017-07-02T20:18:17.617Z,70.10
2017-07-02T20:20:45.128Z,70.60
2017-07-02T20:23:12.620Z,71.00
2017-07-02T20:25:40.124Z,71.30
2017-07-02T20:28:07.610Z,72.00
2017-07-02T20:30:35.130Z,72.60
2017-07-02T20:33:02.620Z,72.90
2017-07-02T20:35:30.120Z,72.60
2017-07-02T20:37:57.600Z,72.70
2017-07-02T20:40:25.107Z,72.30
2017-07-02T20:42:52.599Z,72.40
2017-07-02T20:45:20.124Z,72.40
2017-07-02T20:47:47.621Z,73.00
2017-07-02T20:50:15.156Z,73.20
2017-07-02T20:52:42.644Z,73.00
2017-07-02T20:55:10.159Z,73.30
2017-07-02T20:57:37.669Z,74.20
2017-07-02T21:00:05.917Z,74.50
2017-07-02T21:02:33.406Z,75.00
2017-07-02T21:05:00.932Z,73.70
2017-07-02T21:07:28.422Z,73.80
2017-07-02T21:09:55.950Z,73.80
2017-07-02T21:12:24.599Z,73.70
2017-07-02T21:14:52.122Z,73.80
2017-07-02T21:17:19.667Z,73.80
2017-07-02T21:19:47.255Z,73.40
2017-07-02T21:22:15.576Z,73.60
2017-07-02T21:24:43.080Z,73.60
2017-07-02T21:27:11.365Z,74.20
2017-07-02T21:29:38.872Z,74.10
2017-07-02T21:32:06.379Z,74.30
2017-07-02T21:34:33.870Z,74.70
2017-07-02T21:37:01.410Z,74.70
2017-07-02T21:39:29.677Z,74.70
2017-07-02T21:41:57.960Z,75.10
2017-07-02T21:44:25.453Z,75.00
2017-07-02T21:46:52.964Z,75.40
2017-07-02T21:49:20.466Z,75.60
2017-07-02T21:51:48.734Z,75.20
2017-07-02T21:54:16.310Z,75.10
2017-07-02T21:56:43.961Z,74.90
2017-07-02T21:59:11.590Z,75.60
2017-07-02T22:01:39.099Z,74.90
2017-07-02T22:04:07.463Z,74.70
2017-07-02T22:06:35.720Z,74.60
2017-07-02T22:09:04.522Z,75.00
2017-07-02T22:11:32.064Z,74.90
2017-07-02T22:13:59.578Z,75.20
2017-07-02T22:16:27.071Z,75.10
2017-07-02T22:18:54.590Z,75.40
2017-07-02T22:21:22.095Z,75.60
2017-07-02T22:23:49.597Z,76.00
2017-07-02T22:26:17.139Z,76.10
2017-07-02T22:28:44.770Z,76.00
2017-07-02T22:31:12.300Z,76.00
2017-07-02T22:33:39.818Z,76.50
2017-07-02T22:36:08.082Z,76.90
2017-07-02T22:38:35.826Z,76.90
2017-07-02T22:41:03.326Z,77.40
2017-07-02T22:43:30.838Z,77.40
2017-07-02T22:45:58.323Z,77.50
2017-07-02T22:48:25.873Z,77.90
2017-07-02T22:50:53.363Z,78.00
2017-07-02T22:53:20.892Z,78.40
2017-07-02T22:55:49.153Z,78.50
2017-07-02T22:58:17.457Z,78.80
2017-07-02T23:00:45.015Z,78.70
2017-07-02T23:03:12.602Z,79.20
2017-07-02T23:05:40.153Z,79.50
2017-07-02T23:08:07.653Z,80.00
2017-07-02T23:10:35.170Z,80.10
2017-07-02T23:13:02.678Z,80.30
2017-07-02T23:15:30.196Z,80.40
2017-07-02T23:17:57.681Z,80.00
2017-07-02T23:20:25.203Z,79.90
2017-07-02T23:22:53.455Z,79.70
2017-07-02T23:25:20.963Z,79.70
2017-07-02T23:27:48.511Z,80.00
2017-07-02T23:30:16.026Z,80.00
2017-07-02T23:32:43.526Z,79.50
2017-07-02T23:35:11.036Z,78.80
2017-07-02T23:37:38.526Z,78.60
2017-07-02T23:40:06.027Z,79.00
2017-07-02T23:42:33.516Z,78.40
2017-07-02T23:45:01.027Z,78.30
2017-07-02T23:47:28.530Z,78.80
2017-07-02T23:49:56.052Z,78.90
2017-07-02T23:52:23.552Z,79.40
2017-07-02T23:54:51.037Z,79.70
2017-07-02T23:57:18.545Z,79.80
2017-07-02T23:59:46.048Z,79.60
